Date,TemperatureHighF,TemperatureAvgF,TemperatureLowF,DewpointHighF,DewpointAvgF,DewpointLowF,HumidityHigh,HumidityAvg,HumidityLow,PressureMaxIn,PressureMinIn,WindSpeedMaxMPH,WindSpeedAvgMPH,GustSpeedMaxMPH,PrecipitationSumIn
2013-5-1,42.1,30.8,22.7,31.3,26.3,19.3,90,84,64,30.51,30.06,10,1,10,0.10
2013-5-2,40.5,29.0,20.5,24.4,19.2,16.3,88,68,42,30.58,30.41,9,0,9,0.15
2013-5-3,57.1,42.7,25.6,24.8,19.6,11.8,76,44,21,30.42,30.15,10,1,10,0.00
2013-5-4,62.5,46.6,32.4,28.3,23.6,20.0,64,42,24,30.28,30.15,6,0,6,0.00
2013-5-5,58.0,44.3,33.3,21.4,18.5,15.0,50,37,23,30.28,30.17,4,0,4,0.00
2013-5-6,67.7,56.3,38.0,34.2,28.0,20.4,50,35,26,30.15,30.05,4,0,4,0.00
2013-5-7,68.2,57.4,46.6,37.5,31.6,27.3,70,39,25,30.11,30.02,13,2,13,0.00
2013-5-8,52.4,45.5,41.4,39.7,36.9,33.5,83,72,57,30.16,30.07,12,1,12,0.12
2013-5-9,52.4,42.8,36.9,41.1,37.6,34.2,93,83,55,30.28,30.16,9,1,9,0.94
2013-5-10,59.4,47.7,36.0,41.7,35.2,28.4,88,65,32,30.37,30.25,13,1,13,0.02
2013-5-11,63.4,52.0,42.1,42.1,36.7,33.0,77,58,38,30.43,30.33,7,1,7,0.01
2013-5-12,78.1,58.4,42.7,36.8,33.0,28.6,74,42,22,30.34,30.25,8,1,8,0.00
2013-5-13,81.4,70.7,53.6,40.3,35.4,31.0,44,28,19,30.31,30.23,14,1,14,0.00
2013-5-14,75.8,63.2,55.8,43.9,37.9,32.8,62,40,22,30.22,30.11,10,2,10,0.15
2013-5-15,75.6,61.4,52.0,48.1,42.5,36.5,76,52,28,30.17,30.07,8,1,8,0.09
2013-5-16,85.0,63.3,45.9,45.9,37.0,24.3,80,44,16,30.11,29.99,12,1,12,0.00
2013-5-17,82.8,65.9,50.2,46.6,31.3,12.3,77,36,8,30.08,29.98,7,1,7,0.00
2013-5-18,75.2,62.8,52.4,36.3,23.7,13.2,54,24,15,30.06,29.94,12,2,12,0.00
2013-5-19,62.5,53.7,46.1,36.8,31.7,23.8,62,45,24,30.02,29.92,8,1,8,0.02
2013-5-20,63.2,48.7,41.0,43.9,36.9,29.4,85,65,39,30.15,29.99,10,1,10,0.14
2013-5-21,68.6,50.7,37.6,39.1,34.2,26.2,86,59,24,30.16,30.01,9,1,9,0.00
2013-5-22,77.8,60.7,40.3,41.5,36.9,31.0,71,44,23,30.16,30.03,7,1,7,0.00
2013-5-23,65.9,52.4,47.5,47.8,42.6,39.7,84,70,48,30.23,30.16,2,0,2,0.00
2013-5-24,94.5,71.0,51.1,51.3,31.2,18.0,90,32,7,30.17,30.06,8,1,8,0.00
2013-5-25,95.6,69.7,49.3,44.6,29.3,14.3,68,29,6,30.16,30.03,8,1,8,0.00
2013-5-26,86.4,70.5,56.5,41.8,26.0,13.8,44,21,8,30.12,29.99,8,1,8,0.00
2013-5-27,79.9,67.2,57.1,41.7,25.6,12.8,55,25,10,30.06,29.92,10,1,10,0.00
2013-5-28,90.4,68.8,48.2,50.5,40.0,28.0,71,39,18,29.99,29.80,3,0,3,0.00
2013-5-29,68.6,58.8,49.9,45.2,38.7,25.5,78,49,28,29.91,29.77,8,2,8,0.00
2013-5-30,72.9,58.9,47.7,29.8,21.4,10.0,43,26,11,30.02,29.87,16,4,16,0.00
2013-5-31,69.8,59.5,48.6,27.3,16.9,7.4,43,21,10,30.16,30.00,17,6,17,0.00